17 a 23/4 - Templado a cálido y luego refrescada, mayormente estable (algunas PP NOA y Cord. Sur)

Avatar de Usuario
Seba
Mensajes: 16982
Registrado: Mié Jul 15, 2009 3:31 pm
Ubicación: Palermo, CABA

Re: 17 a 24/4 - Templado a cálido y luego refrescada, mayormente estable (algunas PP NOA y Cord. Sur)

Mensaje por Seba » Mié Abr 22, 2020 3:39 pm

Otra tarde cálida en Concepción, en donde los efectos del frente prácticamente ni se sintieron.
27,9 la actual con 18,3 de Td.
Con raíces pero en libertad.

Avatar de Usuario
Diecha
Mensajes: 11481
Registrado: Jue Ago 25, 2011 9:31 pm
Ubicación: Lomas de Zamora

Re: 17 a 23/4 - Templado a cálido y luego refrescada, mayormente estable (algunas PP NOA y Cord. Sur)

Mensaje por Diecha » Mié Abr 22, 2020 4:33 pm

Imagen

Imagen
Spoiler
Mostrar
Imagen
Imagen
Imagen
Imagen
Imagen
Imagen
Imagen
Última edición por Diecha el Jue Abr 23, 2020 1:33 am, editado 1 vez en total.

Avatar de Usuario
Carlitos12
Mensajes: 2243
Registrado: Jue Jul 16, 2015 10:39 pm
Ubicación: Ciudad de Corrientes
Contactar:

Re: 17 a 23/4 - Templado a cálido y luego refrescada, mayormente estable (algunas PP NOA y Cord. Sur)

Mensaje por Carlitos12 » Mié Abr 22, 2020 4:58 pm

Cálido en Corrientes, 30.6ºC.

Avatar de Usuario
Fedex
Mensajes: 2838
Registrado: Jue Jul 17, 2014 3:30 pm
Ubicación: Villa Ballester, San Martin, Buenos Aires
Contactar:

Re: 17 a 23/4 - Templado a cálido y luego refrescada, mayormente estable (algunas PP NOA y Cord. Sur)

Mensaje por Fedex » Mié Abr 22, 2020 6:40 pm

Bueno oklahoma tiene unos tremendo tornados ahora mismo, pero nosotros tenemos unos pequeños nucleos en Escobar, que tal eh.
QUE TAL EEEEEEHHHH

Imagen
Cada vez que se superan los 24°C de Td, un gatito renace.

#MuerteALasLineas

El corazón late y es suficiente

Avatar de Usuario
Diecha
Mensajes: 11481
Registrado: Jue Ago 25, 2011 9:31 pm
Ubicación: Lomas de Zamora

Re: 17 a 23/4 - Templado a cálido y luego refrescada, mayormente estable (algunas PP NOA y Cord. Sur)

Mensaje por Diecha » Jue Abr 23, 2020 1:35 am

Imagen

Imagen
Spoiler
Mostrar
Imagen
Imagen
Imagen
Imagen
Imagen

Avatar de Usuario
Fedex
Mensajes: 2838
Registrado: Jue Jul 17, 2014 3:30 pm
Ubicación: Villa Ballester, San Martin, Buenos Aires
Contactar:

Re: 17 a 23/4 - Templado a cálido y luego refrescada, mayormente estable (algunas PP NOA y Cord. Sur)

Mensaje por Fedex » Jue Abr 23, 2020 2:39 am

Tormentita por Saladillo, y chapa al Oeste de Ezeiza

Imagen
Cada vez que se superan los 24°C de Td, un gatito renace.

#MuerteALasLineas

El corazón late y es suficiente

Avatar de Usuario
Diecha
Mensajes: 11481
Registrado: Jue Ago 25, 2011 9:31 pm
Ubicación: Lomas de Zamora

Re: 17 a 23/4 - Templado a cálido y luego refrescada, mayormente estable (algunas PP NOA y Cord. Sur)

Mensaje por Diecha » Jue Abr 23, 2020 5:36 am

- San Fernando 05 hs: SADF 230800Z 09004KT CAVOK 18/16 Q1015
- Aeroparque 05 hs: SABE 230800Z 11007KT CAVOK 18/17 Q1015
- Ezeiza 05 hs: SAEZ 230800Z 14003KT 8000 NSC 15/15 Q1015

Imagen
Imagen

marleygaletfede
Mensajes: 2356
Registrado: Lun Feb 20, 2012 10:13 pm
Ubicación: Santa Teresita, Partido de La Costa, Buenos Aires

Re: 17 a 23/4 - Templado a cálido y luego refrescada, mayormente estable (algunas PP NOA y Cord. Sur)

Mensaje por marleygaletfede » Jue Abr 23, 2020 10:34 am

Fedex escribió:
Mié Abr 22, 2020 6:40 pm
Bueno oklahoma tiene unos tremendo tornados ahora mismo, pero nosotros tenemos unos pequeños nucleos en Escobar, que tal eh.
QUE TAL EEEEEEHHHH

Imagen
:lol: :lol: :lol:

Ya casi igualan ja ja ja
Por acá totalmente despejado. Típica iluminación débil pero todavía presente de abril.

Avatar de Usuario
Ernest
Mensajes: 11463
Registrado: Vie Jul 17, 2009 10:54 pm
Ubicación: Balvanera, CABA

Re: 17 a 23/4 - Templado a cálido y luego refrescada, mayormente estable (algunas PP NOA y Cord. Sur)

Mensaje por Ernest » Jue Abr 23, 2020 10:41 am

Seguimos por acá: viewtopic.php?f=9&t=6108
Did you want to talk about the weather, or were you just making chitchat?

Twitter: @ErnestoMeteo

Responder